CST,Max TemperatureF,Mean TemperatureF,Min TemperatureF,Max Dew PointF,MeanDew PointF,Min DewpointF,Max Humidity, Mean Humidity, Min Humidity, Max Sea Level PressureIn, Mean Sea Level PressureIn, Min Sea Level PressureIn, Max VisibilityMiles, Mean VisibilityMiles, Min VisibilityMiles, Max Wind SpeedMPH, Mean Wind SpeedMPH, Max Gust SpeedMPH,PrecipitationIn, CloudCover, Events, WindDirDegrees
2013-11-1,46,38,29,45,39,30,100,97,81,29.79,29.56,29.36,10,9,2,16,10,21,0.01,6,Rain,270
2013-11-2,46,35,24,40,32,25,100,92,57,30.15,30.03,29.80,10,7,1,12,6,,0.02,4,Rain,304
2013-11-3,50,35,20,33,28,21,100,85,50,30.26,30.18,30.14,10,7,2,15,3,21,0.00,3,,119
2013-11-4,50,46,43,46,41,33,100,83,62,30.17,30.07,30.00,10,8,4,18,11,25,0.01,7,Rain,177
2013-11-5,48,39,30,46,39,30,100,99,76,30.29,30.16,29.82,10,4,0,8,2,,0.01,6,Fog-Rain,64
2013-11-6,42,35,26,37,30,21,100,78,45,30.15,30.00,29.87,10,10,6,16,13,24,0.05,4,,303
2013-11-7,37,28,19,30,25,19,100,92,70,30.23,30.20,30.17,10,7,0,13,6,,0.00,2,Fog,282
2013-11-8,44,30,16,38,24,16,100,87,53,30.28,30.12,29.71,10,7,0,15,3,22,0.00,2,Fog-Rain,142
2013-11-9,48,43,38,41,34,25,83,69,55,30.12,29.86,29.68,10,10,10,28,14,34,0.00,7,Rain,262
2013-11-10,46,41,36,29,28,26,68,58,46,30.35,30.23,30.11,10,10,10,17,12,24,0.00,6,,262
2013-11-11,42,29,16,36,25,9,100,81,53,30.65,30.26,30.07,10,9,4,18,11,28,0.00,5,Rain-Snow,319
2013-11-12,28,18,9,14,10,6,87,70,43,30.79,30.69,30.56,10,10,10,13,9,,0.00,2,,274
2013-11-13,46,30,15,27,16,10,82,53,36,30.56,30.24,29.99,10,10,10,20,8,29,0.00,1,,216
2013-11-14,51,42,34,32,25,16,70,52,41,29.97,29.89,29.81,10,10,10,14,9,20,0.00,4,Rain,218
2013-11-15,55,38,21,36,31,22,100,72,47,29.92,29.87,29.83,10,10,2,8,4,,0.00,1,,199
2013-11-16,59,48,37,59,49,34,100,97,78,29.81,29.51,29.35,10,6,2,20,9,26,0.00,6,Rain,163
2013-11-17,53,46,36,54,44,31,100,96,75,29.71,29.39,29.23,10,7,0,25,7,34,0.11,5,Fog-Rain,276
2013-11-18,34,26,15,28,22,14,95,74,64,30.30,30.04,29.72,10,10,10,26,18,38,0.00,6,,291
2013-11-19,41,27,13,27,21,12,98,74,45,30.37,30.28,30.17,10,10,10,13,6,17,0.00,3,,143
2013-11-20,39,36,32,36,30,27,100,84,61,30.17,30.10,30.04,10,7,3,15,9,23,0.03,8,Rain-Snow,134
2013-11-21,41,36,31,39,35,30,100,99,93,30.36,30.23,30.07,10,7,1,15,6,,0.00,8,Rain,319
2013-11-22,33,26,19,30,22,10,100,82,47,30.54,30.44,30.32,10,8,2,16,11,21,0.01,5,Snow,306
2013-11-23,23,14,2,16,6,-2,83,66,45,30.78,30.60,30.43,10,10,4,22,13,29,0.00,5,Snow,313
2013-11-24,25,12,0,4,1,-4,85,55,32,30.74,30.51,30.19,10,10,10,18,6,31,0.00,0,,209
2013-11-25,35,30,24,27,18,1,86,65,34,30.14,30.02,29.95,10,10,9,18,14,28,0.00,6,Snow,229
2013-11-26,34,20,6,23,11,1,80,60,39,30.30,30.14,30.01,10,9,2,21,11,30,0.00,5,Snow,307
2013-11-27,28,16,5,13,7,1,86,66,43,30.36,30.28,30.20,10,10,10,10,7,,0.00,3,,276
2013-11-28,31,22,8,14,11,7,93,62,46,30.56,30.31,30.15,10,10,10,12,6,18,0.00,5,,286
2013-11-29,32,18,3,18,12,0,95,73,49,30.63,30.51,30.30,10,10,10,10,3,18,0.00,2,,149
2013-11-30,46,37,28,28,24,19,86,67,46,30.27,30.12,30.02,10,10,10,9,6,,0.00,4,,245